createdAt,value
2023-01-25T00:01:39.631Z,5.77
2023-01-25T00:04:05.986Z,5.57
2023-01-25T00:06:32.355Z,5.66
2023-01-25T00:08:58.770Z,5.45
2023-01-25T00:11:25.095Z,5.63
2023-01-25T00:13:53.971Z,5.62
2023-01-25T00:16:21.036Z,5.74
2023-01-25T00:18:48.380Z,5.72
2023-01-25T00:21:17.317Z,5.47
2023-01-25T00:23:43.891Z,5.90
2023-01-25T00:26:10.809Z,5.77
2023-01-25T00:28:37.621Z,5.60
2023-01-25T00:31:05.402Z,5.97
2023-01-25T00:33:39.905Z,6.15
2023-01-25T00:36:31.766Z,6.21
2023-01-25T00:38:58.648Z,5.97
2023-01-25T00:41:25.208Z,6.17
2023-01-25T00:43:51.527Z,5.54
2023-01-25T00:46:18.710Z,6.08
2023-01-25T00:48:45.437Z,6.01
2023-01-25T00:51:11.868Z,5.48
2023-01-25T00:53:38.223Z,5.48
2023-01-25T00:56:05.296Z,6.16
2023-01-25T00:58:31.838Z,5.53
2023-01-25T01:00:58.185Z,5.33
2023-01-25T01:03:24.629Z,5.44
2023-01-25T01:06:06.223Z,6.00
2023-01-25T01:08:39.448Z,5.69
2023-01-25T01:11:08.377Z,5.94
2023-01-25T01:13:35.241Z,6.18
2023-01-25T01:16:04.006Z,6.15
2023-01-25T01:18:35.062Z,6.20
2023-01-25T01:21:02.145Z,5.85
2023-01-25T01:23:31.506Z,5.78
2023-01-25T01:26:06.143Z,5.81
2023-01-25T01:28:33.853Z,5.42
2023-01-25T01:31:01.282Z,5.39
2023-01-25T01:33:27.682Z,5.28
2023-01-25T01:35:54.062Z,5.42
2023-01-25T01:38:20.520Z,5.54
2023-01-25T01:40:48.287Z,5.98
2023-01-25T01:43:20.898Z,5.30
2023-01-25T01:45:47.286Z,5.99
2023-01-25T01:48:19.705Z,6.01
2023-01-25T01:50:50.880Z,5.50
2023-01-25T01:53:17.373Z,5.77
2023-01-25T01:55:43.870Z,5.50
2023-01-25T01:58:10.349Z,6.00
2023-01-25T02:00:41.070Z,5.91
2023-01-25T02:03:09.891Z,5.75
2023-01-25T02:06:12.574Z,5.69
2023-01-25T02:08:40.787Z,5.73
2023-01-25T02:11:08.102Z,5.80
2023-01-25T02:13:37.086Z,6.02
2023-01-25T02:16:04.245Z,5.60
2023-01-25T02:18:31.317Z,5.95
2023-01-25T02:20:59.522Z,6.09
2023-01-25T02:23:47.943Z,5.92
2023-01-25T02:26:15.441Z,5.46
2023-01-25T02:28:48.042Z,5.70
2023-01-25T02:31:14.665Z,5.70
2023-01-25T02:33:41.075Z,5.70
2023-01-25T02:36:07.353Z,5.92
2023-01-25T02:38:36.780Z,5.96
2023-01-25T02:41:08.724Z,5.47
2023-01-25T02:43:35.691Z,5.46
2023-01-25T02:46:20.719Z,6.06
2023-01-25T02:48:47.145Z,5.69
2023-01-25T02:51:13.759Z,5.65
2023-01-25T02:53:40.598Z,5.92
2023-01-25T02:56:07.958Z,5.81
2023-01-25T02:58:34.378Z,6.06
2023-01-25T03:01:00.704Z,5.70
2023-01-25T03:03:27.072Z,5.81
2023-01-25T03:05:53.512Z,5.76
2023-01-25T03:08:19.893Z,5.38
2023-01-25T03:10:46.190Z,5.24
2023-01-25T03:13:12.621Z,5.45
2023-01-25T03:15:39.047Z,5.52
2023-01-25T03:18:05.485Z,5.50
2023-01-25T03:20:31.829Z,5.27
2023-01-25T03:22:58.163Z,5.51
2023-01-25T03:25:24.481Z,5.59
2023-01-25T03:27:50.824Z,5.65
2023-01-25T03:30:17.310Z,5.44
2023-01-25T03:32:43.666Z,5.60
2023-01-25T03:35:10.424Z,5.48
2023-01-25T03:37:36.899Z,5.53
2023-01-25T03:40:03.549Z,5.46
2023-01-25T03:42:29.915Z,5.57
2023-01-25T03:44:56.243Z,5.54
2023-01-25T03:47:22.612Z,5.55
2023-01-25T03:49:48.961Z,5.96
2023-01-25T03:52:15.325Z,5.80
2023-01-25T03:54:41.755Z,5.81
2023-01-25T03:57:08.093Z,5.70
2023-01-25T03:59:34.408Z,5.67
2023-01-25T04:02:00.726Z,6.09
2023-01-25T04:04:27.072Z,5.71
2023-01-25T04:06:53.596Z,5.15
2023-01-25T04:09:19.989Z,5.38
2023-01-25T04:11:49.803Z,5.95
2023-01-25T04:14:16.275Z,5.54
2023-01-25T04:16:42.647Z,5.75
2023-01-25T04:19:09.000Z,5.81
2023-01-25T04:21:35.346Z,5.98
2023-01-25T04:24:01.770Z,5.92
2023-01-25T04:26:28.150Z,5.71
2023-01-25T04:28:54.488Z,5.86
2023-01-25T04:31:20.923Z,5.95
2023-01-25T04:33:47.755Z,5.78
2023-01-25T04:36:14.730Z,5.57
2023-01-25T04:38:42.124Z,5.56
2023-01-25T04:41:09.358Z,5.67
2023-01-25T04:43:35.706Z,5.65
2023-01-25T04:46:03.015Z,5.79
2023-01-25T04:48:29.848Z,5.72
2023-01-25T04:50:56.212Z,5.61
2023-01-25T04:53:22.540Z,5.65
2023-01-25T04:55:49.233Z,5.68
2023-01-25T04:58:15.755Z,5.51
2023-01-25T05:00:42.351Z,5.78
2023-01-25T05:03:08.688Z,5.95
2023-01-25T05:05:35.086Z,5.69
2023-01-25T05:08:01.564Z,5.66
2023-01-25T05:10:27.879Z,5.80
2023-01-25T05:12:54.213Z,5.74
2023-01-25T05:15:20.554Z,5.61
2023-01-25T05:17:46.983Z,5.46
2023-01-25T05:20:13.388Z,5.17
2023-01-25T05:22:39.708Z,5.33
2023-01-25T05:25:26.421Z,5.42
2023-01-25T05:27:52.750Z,5.47
2023-01-25T05:30:19.108Z,5.56
2023-01-25T05:32:45.513Z,5.49
2023-01-25T05:35:12.150Z,5.38
2023-01-25T05:37:38.588Z,5.65
2023-01-25T05:40:05.697Z,5.47
2023-01-25T05:42:32.402Z,5.65
2023-01-25T05:44:58.763Z,5.61
2023-01-25T05:47:25.157Z,5.79
2023-01-25T05:49:51.498Z,5.66
2023-01-25T05:52:17.847Z,5.58
2023-01-25T05:54:44.595Z,5.20
2023-01-25T05:57:11.036Z,5.39
2023-01-25T05:59:37.424Z,5.41
2023-01-25T06:02:03.831Z,5.35
2023-01-25T06:04:30.203Z,5.26
2023-01-25T06:06:56.699Z,5.21
2023-01-25T06:09:23.482Z,5.45
2023-01-25T06:11:49.960Z,5.52
2023-01-25T06:14:16.348Z,5.42
2023-01-25T06:16:42.673Z,5.30
2023-01-25T06:19:09.065Z,5.34
2023-01-25T06:21:38.816Z,4.63
2023-01-25T06:24:05.529Z,5.45
2023-01-25T06:26:31.967Z,5.44
2023-01-25T06:28:58.451Z,5.21
2023-01-25T06:31:25.102Z,5.44
2023-01-25T06:33:52.225Z,5.54
2023-01-25T06:36:20.417Z,5.47
2023-01-25T06:38:51.559Z,5.20
2023-01-25T06:41:18.920Z,5.35
2023-01-25T06:43:45.926Z,4.75
2023-01-25T06:46:12.654Z,4.74
2023-01-25T06:48:39.894Z,5.23
2023-01-25T06:51:09.760Z,5.39
2023-01-25T06:53:39.442Z,5.28
2023-01-25T06:56:08.639Z,5.49
2023-01-25T06:58:36.843Z,5.15
2023-01-25T07:01:20.969Z,5.65
2023-01-25T07:03:56.020Z,5.43
2023-01-25T07:06:23.235Z,5.65
2023-01-25T07:08:49.984Z,5.66
2023-01-25T07:11:18.926Z,5.63
2023-01-25T07:13:47.137Z,5.57
2023-01-25T07:16:16.544Z,5.56
2023-01-25T07:18:42.944Z,5.43
2023-01-25T07:21:21.181Z,5.47
2023-01-25T07:23:48.918Z,5.43
2023-01-25T07:26:22.580Z,5.48
2023-01-25T07:28:49.819Z,5.18
2023-01-25T07:31:17.918Z,5.13
2023-01-25T07:33:48.523Z,4.96
2023-01-25T07:36:15.151Z,4.47
2023-01-25T07:38:41.598Z,5.01
2023-01-25T07:41:07.935Z,4.69
2023-01-25T07:43:34.310Z,5.06
2023-01-25T07:46:03.216Z,5.11
2023-01-25T07:48:29.808Z,5.29
2023-01-25T07:51:12.944Z,5.47
2023-01-25T07:53:43.610Z,5.33
2023-01-25T07:56:11.892Z,5.43
2023-01-25T07:58:39.629Z,4.88
2023-01-25T08:01:10.823Z,5.31
2023-01-25T08:03:37.444Z,4.99
2023-01-25T08:06:05.216Z,5.30
2023-01-25T08:08:34.423Z,5.37
2023-01-25T08:11:06.570Z,5.42
2023-01-25T08:13:32.954Z,5.47
2023-01-25T08:15:59.291Z,5.56
2023-01-25T08:18:25.738Z,4.89
2023-01-25T08:20:59.402Z,5.65
2023-01-25T08:23:26.745Z,4.55
2023-01-25T08:25:53.417Z,5.34
2023-01-25T08:28:19.952Z,5.16
2023-01-25T08:30:56.948Z,4.75
2023-01-25T08:33:24.210Z,5.23
2023-01-25T08:35:57.253Z,5.13
2023-01-25T08:38:23.850Z,5.16
2023-01-25T08:40:50.518Z,5.32
2023-01-25T08:43:16.972Z,5.22
2023-01-25T08:45:43.388Z,5.44
2023-01-25T08:48:10.454Z,5.39
2023-01-25T08:50:36.983Z,5.17
2023-01-25T08:53:03.365Z,5.39
2023-01-25T08:55:29.782Z,4.86
2023-01-25T08:57:56.674Z,5.45
2023-01-25T09:00:24.051Z,5.27
2023-01-25T09:02:50.566Z,5.54
2023-01-25T09:05:16.991Z,5.57
2023-01-25T09:07:43.460Z,5.47
2023-01-25T09:10:12.948Z,4.52
2023-01-25T09:12:39.592Z,4.70
2023-01-25T09:15:06.488Z,4.58
2023-01-25T09:17:50.378Z,5.57
2023-01-25T09:20:19.851Z,4.34
2023-01-25T09:22:47.430Z,5.37
2023-01-25T09:25:14.556Z,5.30
2023-01-25T09:27:41.339Z,5.04
2023-01-25T09:30:18.310Z,4.94
2023-01-25T09:32:45.771Z,4.70
2023-01-25T09:35:12.439Z,5.45
2023-01-25T09:37:39.040Z,5.50
2023-01-25T09:40:07.521Z,5.40
2023-01-25T09:42:57.607Z,5.48
2023-01-25T09:45:37.375Z,5.40
2023-01-25T09:48:14.441Z,5.44
2023-01-25T09:50:59.811Z,5.44
2023-01-25T09:53:38.587Z,5.59
2023-01-25T09:56:24.416Z,5.10
2023-01-25T09:58:55.649Z,5.19
2023-01-25T10:01:38.199Z,5.44
2023-01-25T10:04:37.580Z,5.31
2023-01-25T10:07:43.313Z,4.99
2023-01-25T10:10:34.535Z,5.18
2023-01-25T10:13:03.515Z,4.22
2023-01-25T10:15:38.532Z,4.17
2023-01-25T10:18:34.400Z,4.21
2023-01-25T10:21:13.286Z,4.53
2023-01-25T10:24:17.691Z,5.13
2023-01-25T10:26:50.154Z,4.22
2023-01-25T10:29:25.994Z,4.86
2023-01-25T10:31:55.108Z,3.97
2023-01-25T10:34:55.094Z,4.61
2023-01-25T10:37:27.238Z,4.24
2023-01-25T10:40:04.651Z,3.71
2023-01-25T10:42:37.857Z,4.40
2023-01-25T10:45:12.391Z,4.18
2023-01-25T10:47:42.917Z,5.03
2023-01-25T10:50:10.601Z,5.02
2023-01-25T10:52:37.866Z,4.32
2023-01-25T10:55:18.962Z,5.19
2023-01-25T10:57:49.090Z,4.96
2023-01-25T11:00:29.929Z,5.52
2023-01-25T11:02:56.943Z,5.21
2023-01-25T11:05:29.746Z,5.30
2023-01-25T11:07:58.820Z,5.16
2023-01-25T11:10:35.984Z,5.38
2023-01-25T11:13:19.478Z,5.34
2023-01-25T11:15:52.275Z,4.54
2023-01-25T11:18:25.223Z,5.23
2023-01-25T11:21:04.125Z,5.51
2023-01-25T11:23:32.197Z,5.17
2023-01-25T11:26:18.855Z,5.57
2023-01-25T11:28:50.153Z,4.96
2023-01-25T11:31:23.862Z,5.37
2023-01-25T11:33:51.639Z,4.71
2023-01-25T11:36:28.379Z,4.19
2023-01-25T11:39:10.739Z,5.20
2023-01-25T11:42:03.185Z,5.48
2023-01-25T11:44:44.588Z,5.56
2023-01-25T11:47:46.519Z,5.60
2023-01-25T11:50:28.094Z,5.41
2023-01-25T11:53:09.968Z,5.02
2023-01-25T11:55:59.708Z,5.17
2023-01-25T11:58:46.616Z,5.28
2023-01-25T12:01:33.857Z,5.20
2023-01-25T12:04:30.951Z,5.00
2023-01-25T12:07:19.104Z,4.97
2023-01-25T12:10:22.793Z,5.03
2023-01-25T12:12:55.389Z,5.10
2023-01-25T12:15:42.263Z,4.80
2023-01-25T12:18:11.540Z,4.65
2023-01-25T12:20:56.238Z,4.72
2023-01-25T12:23:34.714Z,4.81
2023-01-25T12:26:19.658Z,4.79
2023-01-25T12:28:54.677Z,4.41
2023-01-25T12:31:34.517Z,4.36
2023-01-25T12:34:22.773Z,4.57
2023-01-25T12:36:50.335Z,4.39
2023-01-25T12:39:32.952Z,5.11
2023-01-25T12:42:24.478Z,5.40
2023-01-25T12:45:06.451Z,5.14
2023-01-25T12:48:07.923Z,5.45
2023-01-25T12:50:54.257Z,5.70
2023-01-25T12:53:37.398Z,5.36
2023-01-25T12:56:09.091Z,5.43
2023-01-25T12:58:47.635Z,5.66
2023-01-25T13:01:31.744Z,5.38
2023-01-25T13:04:25.185Z,5.67
2023-01-25T13:07:22.266Z,4.67
2023-01-25T13:09:58.052Z,5.55
2023-01-25T13:12:24.681Z,5.14
2023-01-25T13:14:51.104Z,5.19
2023-01-25T13:17:33.671Z,5.55
2023-01-25T13:20:01.229Z,5.57
2023-01-25T13:22:43.089Z,5.54
2023-01-25T13:25:21.128Z,5.63
2023-01-25T13:27:47.751Z,5.61
2023-01-25T13:30:34.378Z,5.39
2023-01-25T13:33:07.038Z,5.28
2023-01-25T13:35:39.194Z,4.99
2023-01-25T13:38:05.556Z,5.21
2023-01-25T13:40:36.452Z,5.12
2023-01-25T13:43:20.681Z,5.13
2023-01-25T13:45:50.712Z,4.69
2023-01-25T13:48:23.252Z,4.40
2023-01-25T13:51:00.641Z,5.34
2023-01-25T13:53:33.294Z,5.33
2023-01-25T13:56:00.201Z,5.32
2023-01-25T13:58:47.981Z,5.02
2023-01-25T14:01:18.587Z,4.77
2023-01-25T14:03:48.751Z,4.94
2023-01-25T14:06:27.840Z,5.07
2023-01-25T14:08:57.017Z,5.35
2023-01-25T14:11:28.125Z,5.41
2023-01-25T14:14:27.708Z,5.37
2023-01-25T14:17:09.856Z,5.48
2023-01-25T14:19:40.528Z,5.18
2023-01-25T14:22:26.915Z,5.42
2023-01-25T14:25:17.362Z,5.52
2023-01-25T14:27:51.517Z,5.41
2023-01-25T14:30:26.889Z,5.11
2023-01-25T14:32:56.432Z,5.42
2023-01-25T14:38:30.563Z,5.31
2023-01-25T14:41:02.133Z,4.89
2023-01-25T14:43:28.867Z,5.26
2023-01-25T14:45:55.366Z,5.19
2023-01-25T14:48:34.879Z,5.04
2023-01-25T14:51:18.361Z,4.25
2023-01-25T14:53:48.949Z,4.87
2023-01-25T14:56:35.000Z,4.78
2023-01-25T14:59:02.883Z,4.73
2023-01-25T15:01:39.299Z,4.64
2023-01-25T15:04:12.142Z,4.80
2023-01-25T15:06:52.727Z,4.94
2023-01-25T15:09:39.154Z,4.99
2023-01-25T15:12:29.240Z,4.67
2023-01-25T15:14:57.330Z,5.15
2023-01-25T15:17:44.238Z,5.00
2023-01-25T15:20:30.391Z,4.68
2023-01-25T15:23:00.057Z,4.39
2023-01-25T15:25:26.437Z,4.21
2023-01-25T15:27:52.970Z,3.71
2023-01-25T15:30:19.319Z,4.59
2023-01-25T15:32:46.669Z,4.26
2023-01-25T15:35:15.262Z,4.73
2023-01-25T15:37:41.988Z,4.58
2023-01-25T15:40:10.726Z,4.86
2023-01-25T15:42:37.217Z,4.66
2023-01-25T15:45:06.149Z,4.80
2023-01-25T15:47:33.345Z,4.51
2023-01-25T15:49:59.745Z,4.36
2023-01-25T15:52:26.132Z,4.19
2023-01-25T15:55:01.332Z,4.21
2023-01-25T15:57:33.078Z,4.20
2023-01-25T16:00:02.000Z,4.40
2023-01-25T16:02:28.751Z,4.10
2023-01-25T16:04:55.175Z,4.16
2023-01-25T16:07:29.447Z,4.16
2023-01-25T16:09:55.772Z,4.09
2023-01-25T16:12:22.267Z,4.04
2023-01-25T16:14:48.932Z,4.38
2023-01-25T16:17:20.606Z,4.32
2023-01-25T16:19:47.852Z,4.29
2023-01-25T16:22:15.575Z,4.23
2023-01-25T16:24:42.763Z,4.32
2023-01-25T16:27:16.853Z,4.20
2023-01-25T16:29:43.618Z,4.10
2023-01-25T16:32:10.137Z,4.17
2023-01-25T16:34:36.460Z,4.00
2023-01-25T16:37:03.055Z,4.08
2023-01-25T16:39:29.423Z,4.43
2023-01-25T16:41:57.344Z,4.57
2023-01-25T16:44:23.783Z,4.52
2023-01-25T16:46:50.519Z,3.96
2023-01-25T16:49:19.569Z,3.93
2023-01-25T16:51:46.064Z,3.76
2023-01-25T16:54:12.754Z,3.75
2023-01-25T16:56:39.567Z,3.64
2023-01-25T16:59:06.762Z,3.61
2023-01-25T17:01:33.811Z,3.81
2023-01-25T17:04:00.449Z,3.87
2023-01-25T17:06:32.990Z,3.77
2023-01-25T17:09:09.421Z,3.40
2023-01-25T17:11:39.830Z,3.24
2023-01-25T17:14:06.719Z,3.57
2023-01-25T17:16:34.177Z,3.49
2023-01-25T17:19:12.912Z,3.56
2023-01-25T17:21:39.416Z,3.80
2023-01-25T17:24:06.315Z,3.81
2023-01-25T17:26:32.971Z,3.52
2023-01-25T17:29:04.217Z,3.76
2023-01-25T17:31:34.922Z,3.89
2023-01-25T17:34:04.378Z,3.93
2023-01-25T17:36:31.073Z,3.64
2023-01-25T17:39:01.905Z,3.65
2023-01-25T17:41:28.493Z,3.57
2023-01-25T17:43:54.827Z,3.45
2023-01-25T17:46:27.820Z,3.56
2023-01-25T17:48:54.198Z,3.58
2023-01-25T17:51:22.880Z,3.68
2023-01-25T17:53:51.000Z,3.11
2023-01-25T17:56:19.002Z,3.43
2023-01-25T17:58:45.928Z,3.48
2023-01-25T18:01:18.359Z,3.59
2023-01-25T18:03:45.776Z,3.64
2023-01-25T18:06:16.661Z,3.52
2023-01-25T18:08:45.635Z,3.60
2023-01-25T18:11:15.403Z,3.63
2023-01-25T18:13:44.621Z,3.68
2023-01-25T18:16:11.552Z,3.28
2023-01-25T18:18:40.120Z,3.66
2023-01-25T18:21:08.975Z,3.74
2023-01-25T18:23:36.629Z,3.61
2023-01-25T18:26:05.247Z,3.49
2023-01-25T18:28:32.469Z,3.81
2023-01-25T18:31:02.351Z,3.64
2023-01-25T18:33:28.757Z,3.78
2023-01-25T18:35:57.235Z,3.62
2023-01-25T18:38:23.986Z,3.30
2023-01-25T18:40:50.378Z,3.70
2023-01-25T18:43:17.031Z,3.60
2023-01-25T18:45:44.028Z,3.85
2023-01-25T18:48:13.322Z,3.98
2023-01-25T18:50:41.225Z,3.63
2023-01-25T18:53:11.873Z,4.04
2023-01-25T18:55:38.652Z,3.92
2023-01-25T18:58:05.379Z,4.20
2023-01-25T19:00:33.489Z,4.26
2023-01-25T19:03:00.385Z,4.25
2023-01-25T19:05:27.294Z,4.35
2023-01-25T19:07:53.847Z,4.11
2023-01-25T19:10:20.517Z,4.19
2023-01-25T19:12:46.889Z,3.87
2023-01-25T19:15:13.347Z,3.59
2023-01-25T19:17:39.703Z,3.48
2023-01-25T19:20:06.599Z,3.39
2023-01-25T19:22:32.964Z,3.37
2023-01-25T19:24:59.316Z,3.78
2023-01-25T19:27:26.816Z,3.77
2023-01-25T19:29:53.295Z,3.13
2023-01-25T19:32:19.669Z,3.52
2023-01-25T19:34:46.059Z,3.64
2023-01-25T19:37:12.411Z,3.97
2023-01-25T19:39:38.731Z,3.91
2023-01-25T19:42:06.738Z,3.25
2023-01-25T19:44:33.098Z,3.22
2023-01-25T19:46:59.576Z,4.15
2023-01-25T19:49:26.064Z,4.09
2023-01-25T19:51:55.283Z,3.21
2023-01-25T19:54:22.887Z,3.92
2023-01-25T19:56:49.705Z,4.31
2023-01-25T19:59:20.800Z,4.24
2023-01-25T20:01:47.858Z,3.75
2023-01-25T20:04:17.389Z,4.36
2023-01-25T20:06:44.153Z,4.25
2023-01-25T20:09:15.026Z,4.15
2023-01-25T20:11:41.692Z,4.43
2023-01-25T20:14:09.577Z,4.06
2023-01-25T20:16:36.063Z,4.38
2023-01-25T20:19:03.737Z,4.21
2023-01-25T20:21:31.716Z,4.27
2023-01-25T20:24:02.288Z,4.22
2023-01-25T20:26:32.485Z,4.23
2023-01-25T20:29:00.162Z,3.85
2023-01-25T20:31:35.537Z,3.89
2023-01-25T20:34:08.107Z,4.02
2023-01-25T20:36:35.672Z,3.69
2023-01-25T20:39:02.833Z,3.51
2023-01-25T20:41:29.844Z,3.64
2023-01-25T20:44:00.375Z,3.29
2023-01-25T20:46:27.046Z,3.42
2023-01-25T20:48:54.043Z,3.42
2023-01-25T20:51:21.604Z,3.40
2023-01-25T20:53:49.775Z,3.60
2023-01-25T20:56:18.361Z,3.27
2023-01-25T20:58:54.843Z,3.50
2023-01-25T21:01:23.386Z,3.11
2023-01-25T21:03:50.366Z,3.52
2023-01-25T21:06:17.786Z,3.62
2023-01-25T21:08:44.981Z,3.34
2023-01-25T21:11:13.867Z,3.61
2023-01-25T21:13:40.751Z,3.32
2023-01-25T21:16:10.266Z,3.37
2023-01-25T21:18:39.301Z,3.09
2023-01-25T21:21:14.342Z,3.33
2023-01-25T21:23:44.754Z,3.31
2023-01-25T21:26:15.522Z,3.50
2023-01-25T21:28:42.090Z,3.59
2023-01-25T21:31:09.562Z,3.58
2023-01-25T21:33:37.838Z,3.56
2023-01-25T21:36:08.420Z,3.38
2023-01-25T21:38:35.849Z,3.04
2023-01-25T21:41:03.394Z,3.45
2023-01-25T21:43:29.907Z,3.18
2023-01-25T21:46:13.423Z,3.18
2023-01-25T21:48:58.383Z,3.04
2023-01-25T21:51:36.641Z,3.21
2023-01-25T21:54:03.054Z,3.27
2023-01-25T21:56:29.527Z,3.31
2023-01-25T21:58:55.843Z,2.95
2023-01-25T22:01:22.971Z,3.13
2023-01-25T22:03:50.865Z,3.10
2023-01-25T22:06:18.420Z,3.30
2023-01-25T22:08:45.422Z,3.09
2023-01-25T22:11:12.015Z,3.22
2023-01-25T22:13:39.134Z,3.19
2023-01-25T22:16:07.442Z,3.30
2023-01-25T22:18:36.181Z,3.16
2023-01-25T22:21:05.612Z,3.09
2023-01-25T22:23:33.155Z,2.85
2023-01-25T22:26:10.064Z,2.43
2023-01-25T22:28:46.721Z,3.12
2023-01-25T22:31:17.741Z,3.09
2023-01-25T22:33:44.590Z,3.11
2023-01-25T22:36:13.234Z,3.38
2023-01-25T22:38:40.093Z,3.25
2023-01-25T22:41:09.278Z,3.32
2023-01-25T22:43:36.142Z,3.24
2023-01-25T22:46:03.592Z,3.25
2023-01-25T22:48:30.000Z,3.28
2023-01-25T22:51:04.156Z,3.35
2023-01-25T22:53:30.939Z,3.00
2023-01-25T22:56:05.893Z,2.87
2023-01-25T22:58:34.856Z,2.91
2023-01-25T23:01:01.716Z,2.92
2023-01-25T23:03:28.539Z,2.89
2023-01-25T23:06:03.142Z,2.94
2023-01-25T23:08:33.625Z,2.79
2023-01-25T23:11:06.553Z,3.14
2023-01-25T23:13:33.359Z,3.12
2023-01-25T23:16:04.404Z,3.10
2023-01-25T23:18:49.898Z,3.10
2023-01-25T23:21:17.946Z,2.96
2023-01-25T23:23:44.737Z,3.03
2023-01-25T23:26:11.695Z,3.49
2023-01-25T23:28:38.275Z,3.32
2023-01-25T23:31:21.234Z,3.10
2023-01-25T23:33:53.350Z,3.06
2023-01-25T23:36:22.488Z,3.05
2023-01-25T23:38:49.440Z,2.91
2023-01-25T23:41:17.263Z,2.99
2023-01-25T23:43:44.367Z,2.92
2023-01-25T23:46:11.351Z,3.00
2023-01-25T23:48:37.692Z,3.14
2023-01-25T23:51:04.129Z,3.42
2023-01-25T23:53:31.459Z,3.34
2023-01-25T23:56:00.884Z,3.52
2023-01-25T23:58:29.344Z,3.70
